createdAt,value
2017-11-14T00:02:02.411Z,92.90
2017-11-14T00:04:31.370Z,92.80
2017-11-14T00:07:00.270Z,93.00
2017-11-14T00:09:28.659Z,92.90
2017-11-14T00:11:56.791Z,93.00
2017-11-14T00:14:24.967Z,92.80
2017-11-14T00:16:53.109Z,92.70
2017-11-14T00:19:21.279Z,92.50
2017-11-14T00:21:49.418Z,92.40
2017-11-14T00:24:17.565Z,92.50
2017-11-14T00:26:46.488Z,92.70
2017-11-14T00:29:14.651Z,92.70
2017-11-14T00:31:42.800Z,92.80
2017-11-14T00:34:10.939Z,92.70
2017-11-14T00:36:39.082Z,92.70
2017-11-14T00:39:07.237Z,92.90
2017-11-14T00:41:35.455Z,92.90
2017-11-14T00:44:03.607Z,92.90
2017-11-14T00:46:31.780Z,92.70
2017-11-14T00:48:59.965Z,92.80
2017-11-14T00:51:28.158Z,92.50
2017-11-14T00:53:56.310Z,92.40
2017-11-14T00:56:24.473Z,92.30
2017-11-14T00:58:52.617Z,92.20
2017-11-14T01:01:21.526Z,92.10
2017-11-14T01:03:49.692Z,92.10
2017-11-14T01:06:17.884Z,92.20
2017-11-14T01:08:46.058Z,92.10
2017-11-14T01:11:14.234Z,92.10
2017-11-14T01:13:42.402Z,92.60
2017-11-14T01:16:10.541Z,92.70
2017-11-14T01:18:39.472Z,92.90
2017-11-14T01:21:07.616Z,92.90
2017-11-14T01:23:35.775Z,92.90
2017-11-14T01:26:04.679Z,92.50
2017-11-14T01:28:32.838Z,92.50
2017-11-14T01:31:01.740Z,92.60
2017-11-14T01:33:29.912Z,92.50
2017-11-14T01:35:58.052Z,92.80
2017-11-14T01:38:26.219Z,92.90
2017-11-14T01:40:54.596Z,93.00
2017-11-14T01:43:22.740Z,93.10
2017-11-14T01:45:51.016Z,92.90
2017-11-14T01:48:19.195Z,93.10
2017-11-14T01:50:47.391Z,92.70
2017-11-14T01:53:15.540Z,92.80
2017-11-14T01:55:43.699Z,92.60
2017-11-14T01:58:11.899Z,92.60
2017-11-14T02:00:48.037Z,92.60
2017-11-14T02:03:16.193Z,93.00
2017-11-14T02:05:44.382Z,93.00
2017-11-14T02:08:12.558Z,93.20
2017-11-14T02:10:40.735Z,93.20
2017-11-14T02:13:08.879Z,93.00
2017-11-14T02:15:37.029Z,92.60
2017-11-14T02:18:05.969Z,92.80
2017-11-14T02:20:34.120Z,92.80
2017-11-14T02:23:02.280Z,92.70
2017-11-14T02:25:30.444Z,92.90
2017-11-14T02:27:58.613Z,92.90
2017-11-14T02:30:27.544Z,93.30
2017-11-14T02:32:55.708Z,93.30
2017-11-14T02:35:23.890Z,93.20
2017-11-14T02:37:52.059Z,93.20
2017-11-14T02:40:20.199Z,93.50
2017-11-14T02:42:48.368Z,93.50
2017-11-14T02:45:17.300Z,93.60
2017-11-14T02:47:45.579Z,93.60
2017-11-14T02:50:13.724Z,93.60
2017-11-14T02:52:41.888Z,93.60
2017-11-14T02:55:10.036Z,93.60
2017-11-14T02:57:38.946Z,93.10
2017-11-14T03:00:07.160Z,93.10
2017-11-14T03:02:35.298Z,93.10
2017-11-14T03:05:03.508Z,93.20
2017-11-14T03:07:31.657Z,93.10
2017-11-14T03:09:59.825Z,93.10
2017-11-14T03:12:27.978Z,93.10
2017-11-14T03:14:56.909Z,92.60
2017-11-14T03:17:25.671Z,92.60
2017-11-14T03:19:53.863Z,92.80
2017-11-14T03:22:22.293Z,92.80
2017-11-14T03:24:51.237Z,93.10
2017-11-14T03:27:19.388Z,93.10
2017-11-14T03:29:47.583Z,92.80
2017-11-14T03:32:15.778Z,93.10
2017-11-14T03:34:44.028Z,93.20
2017-11-14T03:37:12.192Z,93.00
2017-11-14T03:39:40.341Z,93.00
2017-11-14T03:42:08.500Z,93.10
2017-11-14T03:44:37.413Z,92.70
2017-11-14T03:47:05.568Z,92.70
2017-11-14T03:49:34.497Z,92.60
2017-11-14T03:52:02.666Z,92.60
2017-11-14T03:54:30.852Z,92.60
2017-11-14T03:56:59.020Z,92.60
2017-11-14T03:59:27.163Z,92.40
2017-11-14T04:01:55.365Z,92.80
2017-11-14T04:04:23.507Z,92.70
2017-11-14T04:06:51.674Z,92.50
2017-11-14T04:09:20.601Z,92.60
2017-11-14T04:11:48.777Z,92.60
2017-11-14T04:14:16.911Z,92.60
2017-11-14T04:16:45.845Z,92.60
2017-11-14T04:19:14.005Z,92.60
2017-11-14T04:21:42.156Z,92.60
2017-11-14T04:24:10.311Z,92.60
2017-11-14T04:26:38.451Z,92.90
2017-11-14T04:29:06.625Z,92.80
2017-11-14T04:31:35.607Z,92.90
2017-11-14T04:34:03.777Z,92.90
2017-11-14T04:36:32.224Z,92.80
2017-11-14T04:39:00.438Z,93.30
2017-11-14T04:41:28.589Z,93.30
2017-11-14T04:43:56.749Z,93.20
2017-11-14T04:46:24.940Z,93.20
2017-11-14T04:48:53.102Z,93.30
2017-11-14T04:51:21.258Z,93.30
2017-11-14T04:53:49.435Z,93.30
2017-11-14T04:56:17.579Z,93.30
2017-11-14T04:58:46.480Z,93.30
2017-11-14T05:01:14.648Z,93.30
2017-11-14T05:03:44.355Z,93.30
2017-11-14T05:06:13.519Z,93.30
2017-11-14T05:08:41.666Z,93.30
2017-11-14T05:11:09.840Z,93.20
2017-11-14T05:13:37.979Z,93.30
2017-11-14T05:16:06.188Z,93.30
2017-11-14T05:18:34.339Z,93.20
2017-11-14T05:21:02.503Z,93.30
2017-11-14T05:23:30.645Z,93.30
2017-11-14T05:25:58.832Z,93.50
2017-11-14T05:28:27.743Z,93.30
2017-11-14T05:30:55.886Z,93.30
2017-11-14T05:33:24.831Z,93.20
2017-11-14T05:35:52.976Z,93.20
2017-11-14T05:38:21.146Z,93.20
2017-11-14T05:40:49.305Z,93.20
2017-11-14T05:43:18.339Z,93.30
2017-11-14T05:45:46.494Z,93.30
2017-11-14T05:48:14.665Z,93.30
2017-11-14T05:50:42.821Z,93.30
2017-11-14T05:53:11.760Z,93.30
2017-11-14T05:55:40.028Z,93.50
2017-11-14T05:58:08.187Z,93.50
2017-11-14T06:00:36.364Z,93.50
2017-11-14T06:03:04.545Z,93.50
2017-11-14T06:05:32.711Z,93.70
2017-11-14T06:08:00.892Z,93.70
2017-11-14T06:10:29.064Z,93.80
2017-11-14T06:12:57.216Z,93.90
2017-11-14T06:15:25.381Z,93.90
2017-11-14T06:17:53.535Z,93.90
2017-11-14T06:20:22.466Z,94.00
2017-11-14T06:22:50.636Z,94.00
2017-11-14T06:25:19.034Z,94.00
2017-11-14T06:27:47.305Z,94.00
2017-11-14T06:30:15.523Z,93.90
2017-11-14T06:32:44.647Z,94.00
2017-11-14T06:35:13.880Z,94.00
2017-11-14T06:37:42.220Z,94.10
2017-11-14T06:40:11.221Z,94.30
2017-11-14T06:42:39.563Z,94.30
2017-11-14T06:45:08.489Z,94.50
2017-11-14T06:47:36.693Z,94.50
2017-11-14T06:50:04.853Z,94.40
2017-11-14T06:52:33.039Z,94.60
2017-11-14T06:55:01.196Z,94.80
2017-11-14T06:57:29.373Z,95.00
2017-11-14T06:59:57.522Z,94.90
2017-11-14T07:02:25.730Z,94.90
2017-11-14T07:04:53.879Z,94.90
2017-11-14T07:07:22.022Z,94.70
2017-11-14T07:09:50.208Z,94.70
2017-11-14T07:12:18.360Z,94.50
2017-11-14T07:14:47.299Z,94.30
2017-11-14T07:17:15.453Z,94.30
2017-11-14T07:19:43.752Z,94.30
2017-11-14T07:22:11.968Z,94.50
2017-11-14T07:24:40.896Z,94.60
2017-11-14T07:27:09.069Z,94.60
2017-11-14T07:29:37.275Z,94.70
2017-11-14T07:32:05.448Z,94.70
2017-11-14T07:34:33.647Z,95.00
2017-11-14T07:37:02.568Z,95.10
2017-11-14T07:39:30.720Z,95.10
2017-11-14T07:41:59.679Z,95.30
2017-11-14T07:44:27.848Z,95.30
2017-11-14T07:46:56.024Z,95.10
2017-11-14T07:49:24.206Z,95.20
2017-11-14T07:51:52.402Z,95.30
2017-11-14T07:54:20.564Z,95.30
2017-11-14T07:56:49.509Z,95.00
2017-11-14T07:59:17.677Z,94.90
2017-11-14T08:01:45.860Z,95.10
2017-11-14T08:04:14.011Z,94.80
2017-11-14T08:06:42.233Z,94.40
2017-11-14T08:09:11.181Z,95.00
2017-11-14T08:11:39.367Z,94.90
2017-11-14T08:14:07.549Z,95.00
2017-11-14T08:16:36.120Z,95.20
2017-11-14T08:19:04.300Z,95.30
2017-11-14T08:21:33.191Z,95.40
2017-11-14T08:24:01.453Z,95.40
2017-11-14T08:26:29.607Z,94.90
2017-11-14T08:28:57.782Z,95.00
2017-11-14T08:31:25.938Z,94.80
2017-11-14T08:33:54.165Z,94.80
2017-11-14T08:36:22.424Z,94.20
2017-11-14T08:38:50.617Z,93.90
2017-11-14T08:41:18.767Z,93.90
2017-11-14T08:43:46.920Z,93.90
2017-11-14T08:46:15.084Z,93.90
2017-11-14T08:48:43.241Z,93.90
2017-11-14T08:51:11.475Z,93.90
2017-11-14T08:53:39.636Z,93.70
2017-11-14T08:56:07.900Z,93.20
2017-11-14T08:58:36.053Z,93.30
2017-11-14T09:01:04.207Z,93.40
2017-11-14T09:03:33.135Z,93.40
2017-11-14T09:06:01.295Z,93.40
2017-11-14T09:08:29.449Z,93.00
2017-11-14T09:10:58.492Z,92.30
2017-11-14T09:13:26.643Z,92.30
2017-11-14T09:15:54.789Z,92.30
2017-11-14T09:18:22.972Z,92.40
2017-11-14T09:20:51.120Z,92.40
2017-11-14T09:23:20.824Z,92.30
2017-11-14T09:25:49.761Z,92.30
2017-11-14T09:28:17.940Z,92.30
2017-11-14T09:30:46.083Z,91.70
2017-11-14T09:33:14.261Z,91.30
2017-11-14T09:35:42.407Z,91.40
2017-11-14T09:38:11.377Z,91.10
2017-11-14T09:40:39.528Z,91.10
2017-11-14T09:43:07.701Z,91.10
2017-11-14T09:45:35.876Z,90.70
2017-11-14T09:48:04.046Z,91.00
2017-11-14T09:50:32.204Z,91.00
2017-11-14T09:53:00.384Z,90.60
2017-11-14T09:55:28.530Z,91.00
2017-11-14T09:57:56.680Z,90.90
2017-11-14T10:00:25.613Z,90.30
2017-11-14T10:02:53.796Z,90.30
2017-11-14T10:05:21.971Z,90.00
2017-11-14T10:07:50.111Z,90.20
2017-11-14T10:10:18.280Z,90.20
2017-11-14T10:12:46.449Z,90.20
2017-11-14T10:15:15.476Z,89.90
2017-11-14T10:17:43.625Z,89.90
2017-11-14T10:20:11.797Z,90.40
2017-11-14T10:22:39.942Z,90.40
2017-11-14T10:25:08.899Z,90.50
2017-11-14T10:27:37.049Z,90.30
2017-11-14T10:30:05.208Z,90.10
2017-11-14T10:32:33.352Z,90.60
2017-11-14T10:35:02.313Z,90.80
2017-11-14T10:37:30.490Z,90.80
2017-11-14T10:39:58.762Z,90.90
2017-11-14T10:42:26.946Z,90.60
2017-11-14T10:44:55.879Z,90.70
2017-11-14T10:47:24.045Z,90.30
2017-11-14T10:49:52.185Z,90.20
2017-11-14T10:52:20.360Z,89.70
2017-11-14T10:54:48.555Z,90.00
2017-11-14T10:57:17.498Z,90.20
2017-11-14T10:59:45.667Z,90.20
2017-11-14T11:02:13.839Z,90.20
2017-11-14T11:04:42.021Z,90.20
2017-11-14T11:07:10.218Z,90.10
2017-11-14T11:09:38.391Z,90.70
2017-11-14T11:12:06.601Z,90.90
2017-11-14T11:14:34.770Z,91.20
2017-11-14T11:17:02.920Z,90.80
2017-11-14T11:19:31.854Z,90.60
2017-11-14T11:22:00.007Z,90.60
2017-11-14T11:24:28.163Z,90.50
2017-11-14T11:26:57.122Z,90.50
2017-11-14T11:29:25.314Z,90.50
2017-11-14T11:31:53.485Z,90.30
2017-11-14T11:34:21.646Z,90.30
2017-11-14T11:36:49.784Z,90.70
2017-11-14T11:39:17.952Z,90.80
2017-11-14T11:41:46.912Z,90.30
2017-11-14T11:44:15.940Z,90.00
2017-11-14T11:46:45.008Z,90.00
2017-11-14T11:49:13.213Z,89.70
2017-11-14T11:51:41.386Z,89.00
2017-11-14T11:54:09.548Z,88.90
2017-11-14T11:56:37.716Z,87.80
2017-11-14T11:59:06.672Z,87.90
2017-11-14T12:01:35.619Z,87.60
2017-11-14T12:04:04.196Z,87.60
2017-11-14T12:06:32.380Z,86.90
2017-11-14T12:09:00.523Z,85.90
2017-11-14T12:11:28.692Z,85.90
2017-11-14T12:13:56.912Z,85.80
2017-11-14T12:16:25.102Z,84.70
2017-11-14T12:18:54.030Z,84.90
2017-11-14T12:21:22.200Z,84.90
2017-11-14T12:23:50.357Z,84.80
2017-11-14T12:26:18.526Z,85.90
2017-11-14T12:28:46.750Z,85.90
2017-11-14T12:31:14.946Z,86.00
2017-11-14T12:33:43.145Z,86.10
2017-11-14T12:36:11.337Z,85.60
2017-11-14T12:38:39.540Z,85.20
2017-11-14T12:41:07.721Z,86.10
2017-11-14T12:43:35.924Z,85.10
2017-11-14T12:46:04.873Z,83.60
2017-11-14T12:48:33.195Z,83.60
2017-11-14T12:51:02.141Z,83.30
2017-11-14T12:53:30.340Z,83.30
2017-11-14T12:55:58.502Z,83.80
2017-11-14T12:58:26.657Z,83.40
2017-11-14T13:00:54.855Z,82.60
2017-11-14T13:03:23.022Z,83.10
2017-11-14T13:05:51.200Z,84.70
2017-11-14T13:08:19.346Z,85.30
2017-11-14T13:10:47.524Z,85.70
2017-11-14T13:13:15.687Z,85.00
2017-11-14T13:15:43.873Z,83.90
2017-11-14T13:18:12.020Z,81.20
2017-11-14T13:20:40.206Z,76.70
2017-11-14T13:23:08.365Z,76.30
2017-11-14T13:25:36.575Z,76.10
2017-11-14T13:28:04.917Z,76.70
2017-11-14T13:30:33.155Z,78.30
2017-11-14T13:33:01.319Z,79.90
2017-11-14T13:35:29.573Z,80.50
2017-11-14T13:37:57.720Z,81.00
2017-11-14T13:40:27.029Z,78.10
2017-11-14T13:42:55.598Z,73.20
2017-11-14T13:45:23.777Z,64.50
2017-11-14T13:47:51.929Z,64.40
2017-11-14T13:50:20.104Z,65.30
2017-11-14T13:52:48.255Z,66.30
2017-11-14T13:55:16.403Z,68.60
2017-11-14T13:57:44.589Z,69.90
2017-11-14T14:00:12.749Z,72.50
2017-11-14T14:02:41.019Z,75.70
2017-11-14T14:05:09.200Z,77.80
2017-11-14T14:07:37.374Z,79.30
2017-11-14T14:10:05.518Z,81.40
2017-11-14T14:12:33.787Z,82.00
2017-11-14T14:15:01.940Z,83.40
2017-11-14T14:17:30.132Z,82.90
2017-11-14T14:19:58.346Z,83.50
2017-11-14T14:22:27.289Z,83.20
2017-11-14T14:24:55.445Z,83.20
2017-11-14T14:27:23.618Z,83.20
2017-11-14T14:29:51.772Z,83.40
2017-11-14T14:32:20.720Z,82.30
2017-11-14T14:34:48.907Z,82.30
2017-11-14T14:37:17.068Z,82.60
2017-11-14T14:39:45.247Z,82.20
2017-11-14T14:42:13.408Z,82.40
2017-11-14T14:44:41.635Z,81.60
2017-11-14T14:47:10.547Z,81.20
2017-11-14T14:49:39.318Z,81.20
2017-11-14T14:52:07.470Z,80.60
2017-11-14T14:54:36.413Z,81.10
2017-11-14T14:57:04.571Z,81.00
2017-11-14T14:59:33.544Z,80.80
2017-11-14T15:02:01.705Z,82.10
2017-11-14T15:04:30.640Z,81.60
2017-11-14T15:06:58.811Z,81.60
2017-11-14T15:09:27.017Z,81.20
2017-11-14T15:11:55.155Z,80.40
2017-11-14T15:14:23.309Z,80.60
2017-11-14T15:16:51.480Z,79.40
2017-11-14T15:19:19.628Z,79.40
2017-11-14T15:21:48.568Z,80.00
2017-11-14T15:24:17.099Z,80.00
2017-11-14T15:26:45.327Z,79.80
2017-11-14T15:29:13.484Z,79.10
2017-11-14T15:31:41.688Z,79.00
2017-11-14T15:34:09.851Z,79.10
2017-11-14T15:36:38.040Z,79.10
2017-11-14T15:39:06.192Z,79.10
2017-11-14T15:41:34.365Z,79.20
2017-11-14T15:44:03.124Z,78.90
2017-11-14T15:46:31.295Z,78.70
2017-11-14T15:48:59.448Z,79.00
2017-11-14T15:51:28.492Z,78.80
2017-11-14T15:53:57.004Z,78.80
2017-11-14T15:56:26.144Z,78.30
2017-11-14T15:58:54.552Z,78.40
2017-11-14T16:01:22.706Z,77.70
2017-11-14T16:03:50.944Z,78.30
2017-11-14T16:06:20.208Z,78.60
2017-11-14T16:08:48.385Z,78.60
2017-11-14T16:11:16.739Z,79.70
2017-11-14T16:13:44.915Z,81.50
2017-11-14T16:16:14.132Z,82.00
2017-11-14T16:18:42.304Z,83.00
2017-11-14T16:21:10.439Z,83.60
2017-11-14T16:23:38.648Z,83.70
2017-11-14T16:26:06.792Z,85.90
2017-11-14T16:28:34.952Z,85.90
2017-11-14T16:31:03.114Z,85.40
2017-11-14T16:33:31.259Z,84.80
2017-11-14T16:36:00.220Z,84.80
2017-11-14T16:38:28.365Z,84.80
2017-11-14T16:40:56.527Z,84.00
2017-11-14T16:43:24.782Z,83.50
2017-11-14T16:45:53.719Z,83.30
2017-11-14T16:48:21.869Z,83.30
2017-11-14T16:50:50.069Z,82.60
2017-11-14T16:53:18.238Z,82.60
2017-11-14T16:55:46.414Z,81.80
2017-11-14T16:58:14.573Z,81.20
2017-11-14T17:00:42.763Z,81.70
2017-11-14T17:03:10.926Z,81.40
2017-11-14T17:05:39.096Z,81.80
2017-11-14T17:08:07.264Z,81.40
2017-11-14T17:10:35.420Z,81.40
2017-11-14T17:13:03.632Z,81.20
2017-11-14T17:15:31.918Z,81.40
2017-11-14T17:18:00.076Z,81.20
2017-11-14T17:20:28.239Z,81.20
2017-11-14T17:22:56.399Z,80.50
2017-11-14T17:25:24.568Z,80.40
2017-11-14T17:27:52.750Z,80.40
2017-11-14T17:30:20.913Z,80.20
2017-11-14T17:32:49.108Z,80.50
2017-11-14T17:35:17.281Z,80.50
2017-11-14T17:37:45.476Z,80.90
2017-11-14T17:40:13.701Z,80.40
2017-11-14T17:42:41.885Z,80.00
2017-11-14T17:45:10.041Z,80.20
2017-11-14T17:47:38.225Z,80.50
2017-11-14T17:50:06.433Z,80.00
2017-11-14T17:52:35.127Z,80.10
2017-11-14T17:55:03.294Z,79.80
2017-11-14T17:57:31.567Z,80.50
2017-11-14T17:59:59.736Z,79.90
2017-11-14T18:02:27.918Z,79.40
2017-11-14T18:04:56.092Z,79.70
2017-11-14T18:07:24.269Z,79.90
2017-11-14T18:09:52.535Z,80.30
2017-11-14T18:12:20.742Z,81.10
2017-11-14T18:14:49.677Z,83.60
2017-11-14T18:17:17.857Z,83.10
2017-11-14T18:19:46.052Z,83.30
2017-11-14T18:22:14.205Z,84.00
2017-11-14T18:24:42.481Z,84.20
2017-11-14T18:27:10.665Z,86.00
2017-11-14T18:29:38.832Z,87.20
2017-11-14T18:32:07.033Z,88.20
2017-11-14T18:34:35.205Z,89.10
2017-11-14T18:37:03.359Z,89.60
2017-11-14T18:39:31.532Z,89.70
2017-11-14T18:41:59.678Z,89.30
2017-11-14T18:44:27.840Z,89.40
2017-11-14T18:46:56.202Z,89.30
2017-11-14T18:49:24.448Z,88.90
2017-11-14T18:51:52.704Z,88.00
2017-11-14T18:54:20.885Z,87.80
2017-11-14T18:56:49.053Z,88.40
2017-11-14T18:59:17.232Z,89.40
2017-11-14T19:01:45.385Z,90.30
2017-11-14T19:04:13.526Z,90.60
2017-11-14T19:06:41.682Z,90.80
2017-11-14T19:09:10.625Z,91.20
2017-11-14T19:11:38.896Z,91.20
2017-11-14T19:14:07.046Z,91.30
2017-11-14T19:16:35.212Z,91.40
2017-11-14T19:19:03.369Z,91.20
2017-11-14T19:21:31.588Z,91.20
2017-11-14T19:23:59.735Z,91.00
2017-11-14T19:26:27.920Z,90.90
2017-11-14T19:28:56.061Z,90.90
2017-11-14T19:31:24.228Z,90.80
2017-11-14T19:33:53.190Z,90.30
2017-11-14T19:36:21.387Z,90.30
2017-11-14T19:38:50.320Z,90.10
2017-11-14T19:41:18.505Z,90.10
2017-11-14T19:43:46.670Z,89.60
2017-11-14T19:46:14.853Z,90.00
2017-11-14T19:48:43.032Z,89.70
2017-11-14T19:51:11.170Z,89.80
2017-11-14T19:53:39.389Z,89.30
2017-11-14T19:56:07.539Z,89.40
2017-11-14T19:58:35.719Z,89.40
2017-11-14T20:01:04.301Z,89.20
2017-11-14T20:03:32.459Z,88.60
2017-11-14T20:06:00.644Z,88.40
2017-11-14T20:08:29.041Z,88.90
2017-11-14T20:10:57.201Z,89.00
2017-11-14T20:13:25.368Z,88.30
2017-11-14T20:15:53.544Z,88.50
2017-11-14T20:18:21.723Z,88.30
2017-11-14T20:20:49.995Z,88.50
2017-11-14T20:23:18.172Z,88.70
2017-11-14T20:25:46.359Z,89.00
2017-11-14T20:28:14.555Z,89.20
2017-11-14T20:30:43.463Z,89.10
2017-11-14T20:33:12.037Z,89.10
2017-11-14T20:35:40.208Z,89.50
2017-11-14T20:38:09.196Z,89.30
2017-11-14T20:40:38.141Z,89.20
2017-11-14T20:43:06.313Z,89.20
2017-11-14T20:45:34.475Z,89.50
2017-11-14T20:48:02.628Z,88.70
2017-11-14T20:50:30.791Z,89.10
2017-11-14T20:52:59.123Z,89.50
2017-11-14T20:55:27.329Z,89.70
2017-11-14T20:57:56.252Z,89.40
2017-11-14T21:00:24.420Z,89.50
2017-11-14T21:02:52.568Z,89.60
2017-11-14T21:05:21.544Z,89.60
2017-11-14T21:07:50.156Z,89.60
2017-11-14T21:10:18.296Z,89.70
2017-11-14T21:12:47.225Z,89.60
2017-11-14T21:15:15.382Z,89.60
2017-11-14T21:17:43.559Z,89.50
2017-11-14T21:20:11.724Z,89.60
2017-11-14T21:22:40.297Z,89.50
2017-11-14T21:25:09.221Z,89.90
2017-11-14T21:27:37.400Z,89.80
2017-11-14T21:30:05.904Z,89.80
2017-11-14T21:32:34.104Z,89.80
2017-11-14T21:35:02.273Z,89.90
2017-11-14T21:37:31.212Z,90.10
2017-11-14T21:39:59.361Z,89.70
2017-11-14T21:42:27.577Z,89.60
2017-11-14T21:44:55.742Z,89.50
2017-11-14T21:47:23.925Z,89.70
2017-11-14T21:49:52.089Z,89.90
2017-11-14T21:52:20.261Z,89.90
2017-11-14T21:54:48.416Z,90.10
2017-11-14T21:57:16.576Z,90.40
2017-11-14T22:06:43.092Z,90.60
2017-11-14T22:09:11.252Z,90.70
2017-11-14T22:11:39.393Z,90.80
2017-11-14T22:14:07.551Z,90.50
2017-11-14T22:16:36.469Z,90.60
2017-11-14T22:19:04.723Z,90.60
2017-11-14T22:21:33.660Z,90.70
2017-11-14T22:24:02.240Z,90.70
2017-11-14T22:26:30.411Z,90.90
2017-11-14T22:28:58.584Z,90.80
2017-11-14T22:31:26.723Z,90.90
2017-11-14T22:33:54.899Z,90.80
2017-11-14T22:36:23.040Z,90.60
2017-11-14T22:38:51.215Z,90.60
2017-11-14T22:41:19.363Z,90.70
2017-11-14T22:43:47.699Z,90.70
2017-11-14T22:46:15.877Z,90.60
2017-11-14T22:48:44.019Z,90.50
2017-11-14T22:51:13.180Z,90.70
2017-11-14T22:53:41.363Z,90.70
2017-11-14T22:56:09.536Z,90.70
2017-11-14T22:58:37.712Z,90.90
2017-11-14T23:01:05.895Z,90.90
2017-11-14T23:03:34.173Z,91.00
2017-11-14T23:06:02.345Z,90.90
2017-11-14T23:08:30.513Z,90.90
2017-11-14T23:10:58.682Z,91.30
2017-11-14T23:13:27.348Z,91.50
2017-11-14T23:15:55.524Z,91.20
2017-11-14T23:18:23.687Z,91.20
2017-11-14T23:20:51.863Z,91.40
2017-11-14T23:23:20.024Z,91.30
2017-11-14T23:25:48.184Z,91.30
2017-11-14T23:28:16.343Z,91.30
2017-11-14T23:30:44.507Z,91.30
2017-11-14T23:33:13.512Z,91.50
2017-11-14T23:35:41.684Z,91.40
2017-11-14T23:38:09.855Z,91.40
2017-11-14T23:40:38.059Z,91.50
2017-11-14T23:43:06.241Z,91.30
2017-11-14T23:45:34.419Z,91.30
2017-11-14T23:48:02.680Z,91.50
2017-11-14T23:50:30.827Z,91.20
2017-11-14T23:52:58.995Z,91.20
2017-11-14T23:55:27.190Z,91.10
2017-11-14T23:57:55.353Z,91.10
